首页
METAR-TAF:

METAR-TAF

机场 :

Quincy Regional Airport (Baldwin Field)

昆西, 伊利诺伊州, 美国

纬度: 39-56-33N, 经度: 091-11-40W, 海拔: 234米

当前天气观测

该预报发布于32分钟前的20:54 UTC
静风
温度 26°C
湿度 54%
气压 1012 hPa
能見度: 16.1公里
天空无云

METAR: KUIN 182054Z AUTO 00000KT 10SM CLR 26/16 A2988 RMK AO2 SLP113 T02610156 58019

时间: 16:26 (21:26 UTC)

预报

该预报发布于3小时和51分钟前的17:35 UTC
预报有效从18日的 18点(UTC)到 19日的 18点(UTC)
风速4节,风向多变
能見度: 10公里
散云层高于4000英尺
从 19日的 0100点(UTC)
风速3节,风向多变
能見度: 10公里
散云层高于12000英尺
多云层高于25000英尺
从 19日的 0800点(UTC)
风速3节,风向多变
能見度: 10公里
多云层高于4000英尺
附近有阵雨
从 19日的 1300点(UTC)
风速6节,风向
能見度: 4.8公里
阴天层高于1500英尺, 积雨云.
小雨, 轻雾, 附近有雷暴

TAF: KUIN 181735Z 1818/1918 VRB04KT P6SM SCT040 FM190100 VRB03KT P6SM SCT120 BKN250 FM190800 VRB03KT P6SM VCSH BKN040 FM191300 08006KT 3SM -RA BR VCTS OVC015CB

超过4000个机场的气象观测和天气预报(METAR&TAF报告)。

可查询的气象台以黄色和红色小点在地图上表示。

将鼠标移到小点上方,可查看气象台名称。

然后点击查看天气观测和预报。

如需切换地图:点击带黑十字的绿色按钮放大地图;点击带横线的绿色按钮缩小地图;或者点击绿色箭头查看邻近地区的地图。


METAR-TAF: